createdAt,value
2022-09-20T00:00:13.598Z,78.47
2022-09-20T00:02:56.418Z,78.50
2022-09-20T00:05:41.888Z,78.32
2022-09-20T00:08:24.672Z,78.36
2022-09-20T00:11:10.151Z,78.41
2022-09-20T00:13:56.267Z,78.51
2022-09-20T00:16:41.931Z,78.57
2022-09-20T00:19:25.573Z,78.31
2022-09-20T00:22:09.740Z,78.35
2022-09-20T00:24:52.486Z,78.28
2022-09-20T00:27:35.299Z,78.38
2022-09-20T00:30:18.575Z,78.38
2022-09-20T00:33:01.850Z,78.50
2022-09-20T00:35:44.046Z,78.41
2022-09-20T00:38:28.198Z,78.67
2022-09-20T00:41:11.769Z,78.55
2022-09-20T00:43:55.619Z,78.75
2022-09-20T00:46:41.076Z,78.59
2022-09-20T00:49:28.926Z,78.66
2022-09-20T00:52:12.095Z,78.72
2022-09-20T00:54:57.040Z,78.58
2022-09-20T00:57:40.370Z,78.45
2022-09-20T01:00:24.096Z,78.54
2022-09-20T01:03:10.259Z,78.73
2022-09-20T01:05:54.595Z,78.46
2022-09-20T01:08:38.034Z,78.42
2022-09-20T01:11:22.244Z,78.30
2022-09-20T01:14:05.488Z,78.50
2022-09-20T01:16:48.335Z,78.55
2022-09-20T01:19:39.025Z,78.46
2022-09-20T01:22:26.551Z,78.44
2022-09-20T01:25:16.110Z,78.30
2022-09-20T01:28:00.479Z,78.42
2022-09-20T01:30:48.295Z,78.31
2022-09-20T01:33:36.497Z,78.27
2022-09-20T01:36:25.795Z,78.32
2022-09-20T01:39:13.304Z,78.25
2022-09-20T01:41:59.698Z,78.32
2022-09-20T01:44:53.200Z,78.63
2022-09-20T01:47:42.382Z,78.94
2022-09-20T01:50:34.884Z,78.74
2022-09-20T01:53:53.058Z,78.73
2022-09-20T01:56:55.730Z,78.81
2022-09-20T01:59:55.412Z,78.80
2022-09-20T02:03:05.373Z,78.72
2022-09-20T02:06:15.150Z,78.76
2022-09-20T02:09:20.230Z,78.85
2022-09-20T02:12:33.511Z,78.90
2022-09-20T02:15:36.451Z,78.94
2022-09-20T02:18:39.089Z,79.11
2022-09-20T02:21:32.662Z,78.82
2022-09-20T02:24:24.374Z,78.89
2022-09-20T02:27:19.699Z,78.89
2022-09-20T02:30:20.712Z,78.96
2022-09-20T02:33:31.026Z,79.10
2022-09-20T02:36:28.254Z,79.11
2022-09-20T02:39:16.544Z,79.07
2022-09-20T02:42:10.141Z,79.24
2022-09-20T02:45:04.130Z,79.15
2022-09-20T02:47:48.501Z,79.15
2022-09-20T02:50:39.706Z,79.51
2022-09-20T02:53:36.633Z,79.56
2022-09-20T02:56:27.906Z,79.43
2022-09-20T02:59:20.064Z,79.54
2022-09-20T03:02:12.096Z,79.73
2022-09-20T03:05:09.645Z,79.68
2022-09-20T03:08:09.695Z,79.78
2022-09-20T03:11:03.011Z,79.50
2022-09-20T03:14:03.908Z,79.68
2022-09-20T03:17:05.660Z,79.58
2022-09-20T03:20:01.519Z,79.76
2022-09-20T03:22:55.729Z,79.73
2022-09-20T03:25:51.419Z,79.83
2022-09-20T03:28:49.081Z,79.80
2022-09-20T03:31:58.911Z,79.90
2022-09-20T03:34:51.059Z,79.93
2022-09-20T03:37:55.456Z,80.10
2022-09-20T03:41:09.257Z,80.10
2022-09-20T03:44:11.611Z,80.17
2022-09-20T03:47:04.925Z,80.02
2022-09-20T03:50:24.342Z,80.06
2022-09-20T03:53:55.809Z,80.04
2022-09-20T03:57:10.695Z,79.93
2022-09-20T04:00:06.577Z,80.09
2022-09-20T04:03:29.769Z,80.03
2022-09-20T04:06:35.723Z,79.66
2022-09-20T04:09:34.182Z,79.68
2022-09-20T04:12:27.999Z,79.89
2022-09-20T04:15:24.810Z,80.02
2022-09-20T04:18:19.439Z,79.96
2022-09-20T04:21:06.835Z,80.24
2022-09-20T04:23:57.446Z,80.25
2022-09-20T04:26:45.853Z,80.22
2022-09-20T04:29:37.628Z,80.32
2022-09-20T04:32:26.479Z,80.41
2022-09-20T04:35:52.030Z,80.35
2022-09-20T04:38:35.758Z,80.34
2022-09-20T04:41:37.867Z,80.31
2022-09-20T04:44:53.551Z,80.15
2022-09-20T04:47:45.248Z,80.25
2022-09-20T04:50:55.608Z,79.93
2022-09-20T04:54:09.545Z,80.05
2022-09-20T04:57:25.612Z,79.91
2022-09-20T05:00:12.199Z,79.94
2022-09-20T05:03:39.204Z,79.94
2022-09-20T05:07:03.219Z,79.73
2022-09-20T05:10:04.029Z,79.84
2022-09-20T05:13:11.864Z,80.05
2022-09-20T05:16:02.085Z,80.11
2022-09-20T05:19:09.037Z,80.03
2022-09-20T05:22:20.087Z,79.87
2022-09-20T05:25:27.215Z,79.85
2022-09-20T05:28:20.244Z,79.75
2022-09-20T05:31:11.072Z,79.14
2022-09-20T05:34:03.061Z,78.42
2022-09-20T05:36:56.287Z,78.66
2022-09-20T05:39:44.142Z,79.06
2022-09-20T05:42:36.538Z,79.09
2022-09-20T05:45:35.719Z,79.12
2022-09-20T05:48:28.564Z,79.42
2022-09-20T05:51:21.942Z,79.95
2022-09-20T05:54:25.167Z,79.88
2022-09-20T05:57:20.356Z,79.64
2022-09-20T06:00:08.778Z,79.60
2022-09-20T06:03:06.689Z,79.68
2022-09-20T06:05:59.961Z,79.50
2022-09-20T06:09:08.580Z,79.47
2022-09-20T06:12:17.975Z,79.75
2022-09-20T06:15:13.134Z,79.94
2022-09-20T06:18:04.861Z,80.47
2022-09-20T06:20:58.797Z,80.66
2022-09-20T06:23:41.890Z,80.52
2022-09-20T06:26:29.391Z,80.47
2022-09-20T06:29:15.248Z,80.52
2022-09-20T06:31:58.172Z,80.60
2022-09-20T06:34:40.934Z,80.44
2022-09-20T06:37:58.383Z,80.59
2022-09-20T06:41:14.887Z,80.35
2022-09-20T06:43:59.518Z,80.51
2022-09-20T06:46:42.309Z,80.29
2022-09-20T06:49:28.300Z,80.34
2022-09-20T06:52:15.639Z,80.31
2022-09-20T06:54:59.906Z,80.49
2022-09-20T06:57:42.634Z,80.47
2022-09-20T07:00:25.484Z,80.48
2022-09-20T07:03:09.079Z,80.33
2022-09-20T07:05:51.963Z,80.13
2022-09-20T07:08:34.743Z,80.12
2022-09-20T07:11:19.010Z,80.08
2022-09-20T07:14:02.123Z,79.89
2022-09-20T07:16:44.959Z,79.72
2022-09-20T07:19:27.746Z,79.58
2022-09-20T07:22:11.073Z,79.83
2022-09-20T07:24:53.844Z,80.13
2022-09-20T07:27:37.970Z,79.96
2022-09-20T07:30:21.617Z,79.99
2022-09-20T07:33:04.379Z,79.92
2022-09-20T07:35:47.323Z,79.77
2022-09-20T07:38:30.149Z,79.69
2022-09-20T07:41:12.891Z,79.33
2022-09-20T07:44:17.127Z,78.94
2022-09-20T07:47:01.167Z,78.16
2022-09-20T07:49:44.002Z,77.63
2022-09-20T07:52:26.769Z,77.56
2022-09-20T07:55:10.148Z,77.25
2022-09-20T07:57:54.559Z,77.69
2022-09-20T08:00:38.842Z,78.10
2022-09-20T08:03:21.707Z,78.53
2022-09-20T08:06:06.857Z,78.66
2022-09-20T08:08:51.577Z,78.69
2022-09-20T08:11:36.184Z,78.84
2022-09-20T08:14:19.597Z,78.86
2022-09-20T08:17:03.839Z,78.52
2022-09-20T08:19:46.403Z,78.54
2022-09-20T08:22:29.063Z,78.86
2022-09-20T08:25:11.660Z,78.94
2022-09-20T08:27:54.699Z,79.02
2022-09-20T08:30:38.378Z,79.42
2022-09-20T08:33:22.329Z,79.97
2022-09-20T08:36:05.017Z,79.87
2022-09-20T08:41:55.673Z,78.83
2022-09-20T08:44:46.916Z,77.23
2022-09-20T08:47:31.288Z,75.45
2022-09-20T08:50:18.111Z,76.04
2022-09-20T08:53:04.908Z,76.69
2022-09-20T08:55:47.935Z,76.14
2022-09-20T08:58:30.567Z,76.83
2022-09-20T09:01:16.469Z,77.50
2022-09-20T09:04:00.070Z,78.51
2022-09-20T09:06:44.738Z,79.10
2022-09-20T09:09:29.123Z,78.79
2022-09-20T09:12:20.367Z,79.17
2022-09-20T09:15:06.122Z,79.44
2022-09-20T09:17:48.708Z,79.08
2022-09-20T09:20:41.187Z,80.85
2022-09-20T09:23:27.982Z,80.59
2022-09-20T09:26:17.775Z,79.38
2022-09-20T09:29:10.584Z,78.75
2022-09-20T09:31:54.531Z,77.03
2022-09-20T09:34:38.761Z,75.84
2022-09-20T09:37:28.662Z,74.07
2022-09-20T09:40:17.355Z,74.50
2022-09-20T09:43:01.209Z,74.00
2022-09-20T09:45:43.812Z,72.97
2022-09-20T09:48:27.421Z,73.86
2022-09-20T09:51:11.397Z,74.39
2022-09-20T09:53:55.163Z,75.09
2022-09-20T09:56:47.408Z,76.13
2022-09-20T09:59:40.236Z,75.43
2022-09-20T10:02:44.796Z,74.36
2022-09-20T10:05:30.794Z,71.60
2022-09-20T10:08:18.761Z,70.93
2022-09-20T10:11:07.714Z,71.56
2022-09-20T10:14:03.108Z,71.92
2022-09-20T10:16:55.441Z,71.98
2022-09-20T10:19:47.307Z,71.95
2022-09-20T10:22:35.155Z,73.25
2022-09-20T10:25:23.954Z,74.43
2022-09-20T10:28:13.652Z,73.61
2022-09-20T10:31:04.564Z,73.12
2022-09-20T10:33:54.113Z,72.30
2022-09-20T10:36:40.846Z,70.58
2022-09-20T10:39:26.349Z,71.22
2022-09-20T10:42:33.233Z,73.07
2022-09-20T10:45:43.911Z,72.75
2022-09-20T10:48:25.794Z,73.82
2022-09-20T10:51:14.888Z,73.97
2022-09-20T10:54:06.016Z,72.90
2022-09-20T10:56:52.474Z,71.53
2022-09-20T10:59:43.306Z,72.82
2022-09-20T11:02:36.935Z,71.07
2022-09-20T11:05:27.171Z,70.61
2022-09-20T11:08:13.005Z,70.38
2022-09-20T11:10:57.267Z,70.73
2022-09-20T11:13:42.519Z,70.44
2022-09-20T11:16:29.264Z,68.72
2022-09-20T11:19:18.385Z,68.08
2022-09-20T11:22:07.561Z,67.37
2022-09-20T11:24:52.598Z,67.18
2022-09-20T11:27:39.130Z,66.78
2022-09-20T11:30:22.885Z,65.79
2022-09-20T11:33:11.916Z,65.47
2022-09-20T11:35:57.508Z,63.53
2022-09-20T11:38:52.284Z,62.79
2022-09-20T11:41:35.948Z,61.77
2022-09-20T11:44:20.539Z,62.00
2022-09-20T11:47:05.572Z,63.42
2022-09-20T11:49:56.156Z,64.29
2022-09-20T11:52:49.298Z,65.40
2022-09-20T11:55:42.559Z,66.56
2022-09-20T11:58:25.774Z,67.44
2022-09-20T12:01:13.466Z,66.76
2022-09-20T12:04:20.505Z,65.58
2022-09-20T12:07:07.469Z,63.78
2022-09-20T12:09:56.489Z,62.65
2022-09-20T12:12:42.453Z,63.16
2022-09-20T12:15:26.295Z,63.43
2022-09-20T12:18:13.692Z,62.60
2022-09-20T12:21:07.299Z,62.92
2022-09-20T12:24:10.596Z,60.27
2022-09-20T12:26:56.823Z,60.56
2022-09-20T12:29:54.325Z,60.09
2022-09-20T12:32:56.258Z,59.65
2022-09-20T12:35:57.522Z,59.52
2022-09-20T12:38:48.194Z,58.85
2022-09-20T12:41:46.129Z,58.68
2022-09-20T12:44:31.386Z,59.49
2022-09-20T12:47:18.232Z,59.45
2022-09-20T12:50:19.410Z,58.94
2022-09-20T12:53:04.353Z,60.45
2022-09-20T12:55:55.034Z,61.37
2022-09-20T12:58:45.091Z,60.86
2022-09-20T13:01:30.304Z,62.53
2022-09-20T13:04:32.319Z,62.65
2022-09-20T13:07:44.938Z,63.70
2022-09-20T13:10:30.178Z,61.40
2022-09-20T13:13:19.970Z,61.69
2022-09-20T13:16:06.021Z,62.37
2022-09-20T13:18:50.128Z,60.31
2022-09-20T13:21:33.435Z,60.56
2022-09-20T13:24:19.052Z,61.20
2022-09-20T13:27:03.402Z,60.77
2022-09-20T13:29:47.627Z,62.23
2022-09-20T13:32:31.235Z,62.20
2022-09-20T13:35:16.837Z,62.92
2022-09-20T13:38:02.045Z,62.13
2022-09-20T13:40:47.785Z,62.21
2022-09-20T13:43:32.898Z,63.12
2022-09-20T13:46:17.949Z,63.42
2022-09-20T13:49:13.741Z,64.35
2022-09-20T13:51:56.681Z,65.22
2022-09-20T13:54:39.263Z,65.07
2022-09-20T13:57:24.079Z,65.70
2022-09-20T14:00:07.443Z,65.76
2022-09-20T14:02:56.238Z,64.40
2022-09-20T14:05:39.522Z,64.87
2022-09-20T14:08:24.206Z,65.48
2022-09-20T14:11:08.273Z,65.43
2022-09-20T14:13:52.246Z,65.96
2022-09-20T14:16:36.144Z,66.24
2022-09-20T14:19:21.958Z,65.61
2022-09-20T14:22:05.562Z,64.83
2022-09-20T14:24:59.506Z,65.60
2022-09-20T14:27:42.110Z,65.89
2022-09-20T14:30:30.041Z,66.82
2022-09-20T14:33:16.045Z,67.09
2022-09-20T14:36:00.815Z,66.58
2022-09-20T14:38:45.383Z,65.22
2022-09-20T14:41:29.831Z,64.84
2022-09-20T14:44:21.943Z,66.34
2022-09-20T14:47:14.800Z,66.27
2022-09-20T14:49:58.091Z,66.08
2022-09-20T14:52:44.100Z,66.43
2022-09-20T14:55:28.550Z,66.86
2022-09-20T14:58:12.265Z,66.89
2022-09-20T15:00:57.874Z,67.30
2022-09-20T15:03:44.660Z,67.11
2022-09-20T15:06:27.274Z,67.39
2022-09-20T15:09:13.071Z,67.36
2022-09-20T15:12:02.522Z,67.23
2022-09-20T15:14:45.245Z,67.59
2022-09-20T15:17:27.863Z,67.94
2022-09-20T15:20:15.117Z,68.91
2022-09-20T15:22:58.039Z,68.70
2022-09-20T15:25:42.022Z,68.91
2022-09-20T15:28:26.606Z,68.37
2022-09-20T15:31:11.165Z,68.36
2022-09-20T15:33:53.851Z,68.36
2022-09-20T15:36:36.611Z,68.58
2022-09-20T15:39:19.268Z,67.63
2022-09-20T15:42:04.018Z,67.33
2022-09-20T15:44:46.601Z,66.08
2022-09-20T15:47:30.182Z,65.87
2022-09-20T15:50:12.847Z,66.82
2022-09-20T15:52:59.766Z,67.41
2022-09-20T15:55:42.620Z,67.69
2022-09-20T15:58:26.885Z,67.82
2022-09-20T16:01:09.692Z,67.89
2022-09-20T16:03:53.493Z,67.99
2022-09-20T16:06:37.050Z,68.00
2022-09-20T16:09:19.766Z,68.20
2022-09-20T16:12:04.512Z,68.07
2022-09-20T16:14:48.607Z,68.56
2022-09-20T16:17:48.908Z,68.67
2022-09-20T16:20:31.537Z,68.94
2022-09-20T16:23:14.681Z,69.14
2022-09-20T16:25:57.306Z,69.26
2022-09-20T16:28:42.929Z,69.58
2022-09-20T16:31:34.606Z,69.96
2022-09-20T16:34:18.988Z,70.00
2022-09-20T16:37:03.061Z,69.69
2022-09-20T16:39:45.640Z,69.96
2022-09-20T16:42:29.465Z,69.73
2022-09-20T16:45:13.410Z,69.70
2022-09-20T16:47:59.086Z,70.05
2022-09-20T16:50:41.722Z,70.29
2022-09-20T16:53:24.454Z,70.46
2022-09-20T16:56:07.726Z,70.87
2022-09-20T16:58:51.283Z,70.62
2022-09-20T17:01:34.380Z,70.08
2022-09-20T17:04:19.000Z,70.10
2022-09-20T17:07:02.298Z,69.92
2022-09-20T17:09:44.881Z,69.58
2022-09-20T17:12:31.725Z,69.34
2022-09-20T17:15:14.612Z,69.33
2022-09-20T17:17:57.774Z,69.16
2022-09-20T17:20:41.722Z,69.39
2022-09-20T17:23:24.789Z,69.91
2022-09-20T17:26:09.076Z,70.37
2022-09-20T17:28:53.352Z,70.51
2022-09-20T17:31:37.421Z,70.55
2022-09-20T17:34:21.792Z,70.57
2022-09-20T17:37:06.030Z,70.49
2022-09-20T17:39:48.773Z,70.26
2022-09-20T17:42:34.052Z,70.32
2022-09-20T17:45:18.312Z,70.84
2022-09-20T17:48:01.617Z,70.70
2022-09-20T17:50:44.229Z,71.14
2022-09-20T17:53:28.162Z,71.44
2022-09-20T17:56:11.683Z,71.61
2022-09-20T17:58:54.271Z,71.52
2022-09-20T18:01:38.025Z,71.74
2022-09-20T18:04:24.189Z,71.89
2022-09-20T18:07:07.504Z,71.94
2022-09-20T18:09:51.404Z,71.91
2022-09-20T18:12:34.041Z,71.95
2022-09-20T18:15:17.445Z,71.91
2022-09-20T18:18:00.025Z,71.48
2022-09-20T18:20:42.618Z,71.21
2022-09-20T18:23:25.175Z,71.30
2022-09-20T18:26:24.019Z,71.35
2022-09-20T18:29:09.434Z,71.42
2022-09-20T18:31:53.238Z,71.74
2022-09-20T18:34:35.931Z,71.63
2022-09-20T18:37:18.562Z,71.74
2022-09-20T18:40:01.602Z,71.74
2022-09-20T18:42:47.767Z,71.77
2022-09-20T18:45:30.347Z,71.99
2022-09-20T18:48:12.985Z,72.11
2022-09-20T18:50:59.483Z,72.17
2022-09-20T18:53:43.289Z,72.40
2022-09-20T18:56:27.241Z,72.46
2022-09-20T18:59:14.809Z,72.39
2022-09-20T19:02:04.528Z,72.69
2022-09-20T19:04:57.765Z,72.77
2022-09-20T19:07:50.189Z,72.77
2022-09-20T19:10:39.774Z,72.77
2022-09-20T19:13:26.693Z,73.09
2022-09-20T19:16:16.524Z,73.28
2022-09-20T19:19:16.389Z,73.35
2022-09-20T19:22:02.578Z,73.67
2022-09-20T19:24:51.432Z,73.70
2022-09-20T19:27:34.336Z,73.73
2022-09-20T19:30:18.085Z,73.77
2022-09-20T19:33:03.270Z,73.78
2022-09-20T19:35:50.111Z,73.87
2022-09-20T19:38:38.336Z,73.79
2022-09-20T19:41:27.361Z,74.18
2022-09-20T19:44:15.626Z,74.20
2022-09-20T19:47:09.505Z,74.18
2022-09-20T19:49:56.110Z,74.18
2022-09-20T19:52:39.391Z,74.32
2022-09-20T19:55:22.328Z,74.39
2022-09-20T19:58:05.173Z,74.43
2022-09-20T20:00:48.302Z,74.50
2022-09-20T20:03:31.253Z,74.56
2022-09-20T20:06:18.589Z,74.51
2022-09-20T20:09:08.047Z,74.58
2022-09-20T20:11:55.319Z,74.71
2022-09-20T20:14:44.954Z,74.69
2022-09-20T20:17:37.505Z,74.74
2022-09-20T20:20:24.329Z,74.69
2022-09-20T20:23:20.650Z,74.81
2022-09-20T20:26:06.483Z,74.85
2022-09-20T20:28:49.211Z,74.99
2022-09-20T20:31:33.008Z,75.01
2022-09-20T20:34:16.719Z,75.04
2022-09-20T20:37:01.373Z,75.33
2022-09-20T20:39:45.308Z,75.18
2022-09-20T20:42:27.921Z,75.04
2022-09-20T20:45:11.800Z,75.02
2022-09-20T20:47:56.754Z,74.92
2022-09-20T20:50:40.535Z,74.44
2022-09-20T20:53:23.207Z,74.64
2022-09-20T20:56:08.444Z,74.54
2022-09-20T20:58:51.035Z,74.54
2022-09-20T21:01:34.568Z,74.62
2022-09-20T21:04:17.507Z,74.72
2022-09-20T21:07:00.157Z,75.10
2022-09-20T21:09:42.774Z,75.29
2022-09-20T21:12:27.528Z,75.37
2022-09-20T21:15:10.578Z,75.39
2022-09-20T21:17:53.691Z,75.52
2022-09-20T21:20:36.313Z,75.53
2022-09-20T21:23:18.907Z,75.56
2022-09-20T21:26:03.380Z,75.46
2022-09-20T21:28:51.053Z,75.45
2022-09-20T21:31:34.488Z,75.17
2022-09-20T21:34:17.420Z,75.11
2022-09-20T21:37:00.085Z,74.82
2022-09-20T21:39:42.737Z,75.32
2022-09-20T21:42:27.173Z,75.47
2022-09-20T21:45:11.458Z,75.49
2022-09-20T21:47:54.239Z,75.36
2022-09-20T21:50:36.855Z,75.63
2022-09-20T21:53:20.235Z,75.55
2022-09-20T21:56:04.299Z,75.84
2022-09-20T21:58:47.222Z,76.28
2022-09-20T22:01:34.620Z,76.44
2022-09-20T22:04:17.350Z,76.39
2022-09-20T22:06:59.992Z,76.48
2022-09-20T22:09:42.582Z,76.53
2022-09-20T22:12:25.203Z,76.59
2022-09-20T22:15:08.546Z,76.52
2022-09-20T22:17:52.504Z,76.52
2022-09-20T22:20:35.055Z,76.19
2022-09-20T22:23:18.013Z,76.12
2022-09-20T22:26:01.271Z,76.25
2022-09-20T22:28:44.054Z,76.26
2022-09-20T22:31:27.658Z,76.24
2022-09-20T22:34:12.405Z,76.39
2022-09-20T22:36:54.964Z,76.86
2022-09-20T22:39:37.604Z,76.48
2022-09-20T22:42:20.180Z,76.26
2022-09-20T22:45:02.803Z,76.13
2022-09-20T22:47:45.459Z,76.47
2022-09-20T22:50:29.430Z,76.72
2022-09-20T22:53:12.092Z,76.99
2022-09-20T22:55:54.715Z,76.92
2022-09-20T22:58:38.491Z,76.95
2022-09-20T23:01:23.688Z,76.83
2022-09-20T23:04:07.770Z,76.82
2022-09-20T23:06:55.074Z,77.17
2022-09-20T23:09:37.839Z,77.37
2022-09-20T23:12:20.433Z,77.39
2022-09-20T23:15:03.075Z,77.51
2022-09-20T23:17:45.665Z,77.49
2022-09-20T23:20:29.146Z,77.33
2022-09-20T23:23:13.112Z,76.84
2022-09-20T23:25:56.182Z,76.97
2022-09-20T23:28:39.799Z,77.03
2022-09-20T23:31:22.479Z,76.79
2022-09-20T23:34:06.160Z,76.52
2022-09-20T23:36:48.905Z,76.05
2022-09-20T23:39:32.814Z,76.33
2022-09-20T23:42:15.446Z,76.13
2022-09-20T23:44:58.046Z,76.16
2022-09-20T23:47:40.813Z,76.37
2022-09-20T23:50:23.417Z,76.89
2022-09-20T23:53:06.018Z,77.02
2022-09-20T23:55:50.164Z,77.54
2022-09-20T23:58:32.803Z,78.02
